Tuesday, February 9, 2016, 10:42 AM EST

KMDT, Harrisburg International Airport

Location: Middletown, PA, United States Lat: 40.2
Local Time: 10:42 AM EST (15:42 GMT) Lon: -76.767
Time Zone: US/Eastern Elev: 308 ft

Show me the last for .
Show Decoded

2016-02-09 10:07 METAR KMDT 091507Z 08005KT 1/4SM R13/2600V2800FT SN FZFG BKN005 OVC010 M01/M02
                 A2960 RMK AO2 TWR VIS 3/4 P0001 T10061022 =
2016-02-09 09:56 METAR KMDT 091456Z 05003KT 1/4SM R13/3000V4000FT SN FZFG SCT005 OVC012 M01/M02
                 A2960 RMK AO2 TWR VIS 3/4 SLP026 P0004 60009 T10061017 58001 =
2016-02-09 09:23 METAR KMDT 091423Z 09005KT 1/4SM R13/3500FT SN FZFG FEW008 OVC012 M01/M02 A2960
                 RMK AO2 TWR VIS 1 P0001 T10061022 =
2016-02-09 09:10 METAR KMDT 091410Z 09007KT 1/2SM R13/4000FT SN FZFG VV013 M01/M02 A2961 RMK AO2
                 TWR VIS 1 P0001 T10061022 =
2016-02-09 08:56 METAR KMDT 091356Z 10007KT 1/2SM R13/4000V5000FT -SN FEW009 OVC015 M01/M02 A2961
                 RMK AO2 TWR VIS 1 SLP029 P0002 T10061022 =
2016-02-09 08:53 METAR KMDT 091353Z 09006KT 1/2SM R13/4500V5000FT -SN VV015 M01/M02 A2961 RMK AO2
                 TWR VIS 1 P0002 =
2016-02-09 08:52 METAR KMDT 091352Z 09006KT 3/4SM R13/4500V5000FT -SN VV015 M01/M02 A2961 RMK AO2
                 TWR VIS 1 P0002 =
2016-02-09 08:45 METAR KMDT 091345Z 09007KT 1/2SM R13/4500V5000FT -SN BKN014 OVC024 M01/M02 A2961
                 RMK AO2 TWR VIS 1 P0001 T10061022 =
2016-02-09 08:43 METAR KMDT 091343Z 09007KT 3/4SM R13/4500V5000FT -SN FEW009 BKN016 OVC024
                 M01/M02 A2961 RMK AO2 TWR VIS 1 P0001 T10061017 =
2016-02-09 08:41 METAR KMDT 091341Z 09006KT 1/2SM R13/4500V5000FT -SN BKN014 OVC024 M01/M02 A2961
                 RMK AO2 TWR VIS 1 P0001 T10061022 =
2016-02-09 08:18 METAR KMDT 091318Z 09006KT 3/4SM R13/5000V6000FT -SN FEW009 SCT016 OVC024
                 M01/M02 A2960 RMK AO2 TWR VIS 1 P0001 T10061017 =
2016-02-09 07:59 METAR KMDT 091259Z 09005KT 3/4SM R13/6000VP6000FT -SN SCT012 OVC023 M01/M02
                 A2960 RMK AO2 TWR VIS 1 P0000 T10061022 =
2016-02-09 07:56 METAR KMDT 091256Z 09007KT 1/2SM R13/5000VP6000FT -SN FEW009 BKN012 OVC023
                 M01/M02 A2960 RMK AO2 TWR VIS 1 SLP027 P0003 T10061022 =
2016-02-09 07:43 METAR KMDT 091243Z 09006KT 1/2SM R13/5000FT -SN VV010 M01/M02 A2960 RMK AO2 TWR
                 VIS 1 P0002 T10061022 =
2016-02-09 07:24 METAR KMDT 091224Z 09007KT 1/2SM R13/6000VP6000FT -SN OVC008 M01/M02 A2960 RMK
                 AO2 TWR VIS 1 P0001 T10061022 =
2016-02-09 06:56 METAR KMDT 091156Z 09008KT 1 1/4SM -SN OVC008 M01/M02 A2959 =
2016-02-09 06:24 METAR KMDT 091124Z 10008KT 1 1/4SM -SN OVC008 M01/M02 A2959 RMK AO2 TWR VIS 3
                 P0000 T10061022 =
2016-02-09 06:13 METAR KMDT 091113Z 10008KT 2 1/2SM -SN OVC008 00/M02 A2959 RMK AO2 P0000
                 T00001022 =
2016-02-09 05:56 METAR KMDT 091056Z 10008KT 4SM -SN OVC008 00/M02 A2959 =
2016-02-09 04:56 METAR KMDT 090956Z 10008KT 5SM -SN OVC009 00/M02 A2958 =
2016-02-09 03:56 METAR KMDT 090856Z 10009KT 4SM -SN OVC008 00/M02 A2959 RMK AO2 SLP023 P0000
                 60001 T00001017 58011 =
2016-02-09 02:56 METAR KMDT 090756Z 11010KT 6SM -SN OVC009 01/M01 A2961 RMK AO2 SLP030 P0000
                 T00061011 =
2016-02-09 01:56 METAR KMDT 090656Z 13010KT 3SM -SN OVC010 01/M01 A2962 RMK AO2 CIG 006V012
                 SLP034 P0001 T00061011 =
2016-02-09 01:53 METAR KMDT 090653Z 13012KT 3SM -SN OVC008 01/M01 A2962 RMK AO2 CIG 006V012 P0001
                 =
2016-02-09 00:56 METAR KMDT 090556Z 12006KT 1 1/2SM -SN OVC006 01/M01 A2964 =
2016-02-08 23:56 METAR KMDT 090456Z 13008KT 2SM -SN OVC006 01/M01 A2965 RMK AO2 CIG 005V011
                 SLP044 P0002 T00111006 400671028 =
2016-02-08 22:56 METAR KMDT 090356Z COR 11005KT 2SM -SN OVC006 01/00 A2967 =
2016-02-08 22:04 METAR KMDT 090304Z 11006KT 2 1/2SM -SNRA OVC006 01/M01 A2969 RMK AO2 P0000
                 T00111006 =
2016-02-08 21:56 METAR KMDT 090256Z 11007KT 3SM -SNRA BR OVC006 01/00 A2969 RMK AO2 RAE36B48
                 SLP056 P0002 60002 T00110000 58003 =
2016-02-08 21:42 METAR KMDT 090242Z 11007KT 3SM -SN BR OVC008 01/00 A2969 RMK AO2 RAE36 CIG
                 005V011 P0002 T00110000 =
2016-02-08 21:11 METAR KMDT 090211Z 12007KT 4SM -SNRA BR SCT009 OVC017 01/00 A2969 RMK AO2 P0001
                 T00110000 =
2016-02-08 20:56 METAR KMDT 090156Z 13009KT 5SM -SNRA BR OVC018 02/M01 A2970 RMK AO2 SNB55 SLP060
                 P0000 T00171006 =
2016-02-08 19:56 METAR KMDT 090056Z 12007KT 10SM -RA OVC020 02/M01 A2970 RMK AO2 RAE24B41 SLP060
                 PCPN VRY LGT P0000 T00221006 =
2016-02-08 18:56 METAR KMDT 082356Z 12012KT 10SM -RA OVC026 03/M02 A2970 RMK AO2 RAB32 SLP059
                 PCPN VRY LGT P0000 60000 T00331017 10067 20028 51010 =
2016-02-08 18:48 METAR KMDT 082348Z 12008KT 10SM -RA OVC026 03/M02 A2969 RMK AO2 RAB32 P0000
                 T00281017 =
2016-02-08 17:56 METAR KMDT 082256Z 11009KT 10SM OVC044 04/M02 A2969 RMK AO2 SLP056 VIRGA OHD AND
                 ALQDS T00391022 =
2016-02-08 16:56 METAR KMDT 082156Z 11006KT 10SM BKN045 OVC110 04/M02 A2968 =
2016-02-08 15:56 METAR KMDT 082056Z 10009KT 10SM BKN044 BKN120 BKN250 05/M03 A2967 =
2016-02-08 14:56 METAR KMDT 081956Z 13007KT 10SM SCT037 BKN250 05/M03 A2968 RMK AO2 SLP054
                 T00501028 =
2016-02-08 13:56 METAR KMDT 081856Z 12004KT 10SM SCT037 BKN250 06/M03 A2969 =
2016-02-08 12:56 METAR KMDT 081756Z 14006KT 10SM SCT034 BKN250 04/M03 A2970 =
2016-02-08 11:56 METAR KMDT 081656Z 11007KT 10SM SCT250 04/M03 A2974 RMK AO2 SLP073 T00441033 =
2016-02-08 10:56 METAR KMDT 081556Z 09010KT 10SM BKN250 04/M03 A2977 RMK AO2 SLP084 T00391033 =

Support USWX by starting your Amazon purchase here.